Bookmark and Share
Track history (hours):
 

Bsle Venus

Last reported at 2014-Apr-23 08:31 UTC. Time now 2014-Apr-23 09:26 UTC.
Position N 53°32' E 009°59'.

Length 113 m; draft 7.2 m.

Type: Cargo ship. MMSI: 373175000.

NotesDate/timePositionNaut miles runAvg speedWind from/ knotsBaromVisibWave heightAir tempDewpointWater temp
2014-Apr-23 08:31N 53°32' E 009°59'0 0.0
2014-Apr-23 07:28N 53°32' E 009°59'0 0.0
2014-Apr-23 06:32N 53°32' E 009°59'0 0.0
2014-Apr-23 05:26N 53°32' E 009°59'0 0.0
2014-Apr-23 04:33N 53°32' E 009°59'0 0.0
2014-Apr-23 03:31N 53°32' E 009°59'0 0.0
2014-Apr-23 02:31N 53°32' E 009°59'0 0.0
2014-Apr-23 01:29N 53°32' E 009°59'0 0.0
2014-Apr-23 00:31N 53°32' E 009°59'0 0.0
2014-Apr-22 23:32N 53°32' E 009°59'0 0.0
2014-Apr-22 22:31N 53°32' E 009°59'0 0.0
2014-Apr-22 21:33N 53°32' E 009°59'0 0.0
2014-Apr-22 20:32N 53°32' E 009°59'0 0.0
2014-Apr-22 19:28N 53°32' E 009°59'0 0.0
2014-Apr-22 18:25N 53°32' E 009°59'0 0.0
2014-Apr-22 17:27N 53°32' E 009°59'0 0.0
2014-Apr-22 16:30N 53°32' E 009°59'0 0.0
2014-Apr-22 15:29N 53°32' E 009°59'0 0.0
2014-Apr-22 14:31N 53°32' E 009°59'0 0.0
2014-Apr-22 13:29N 53°32' E 009°59'0 0.0
2014-Apr-22 12:31N 53°32' E 009°59'0 0.0
2014-Apr-22 11:31N 53°32' E 009°59'0 0.0
2014-Apr-22 10:29N 53°32' E 009°59'0 0.0
2014-Apr-22 09:31N 53°32' E 009°59'0 0.0
2014-Apr-22 08:33N 53°32' E 009°59'0 0.0
2014-Apr-22 07:16N 53°32' E 009°59'0 0.0
2014-Apr-22 06:22N 53°32' E 009°59'0 0.0
2014-Apr-22 05:20N 53°32' E 009°59'0 0.0
2014-Apr-22 04:30N 53°32' E 009°59'0 0.0
2014-Apr-22 03:23N 53°32' E 009°59'0 0.0
2014-Apr-22 02:14N 53°32' E 009°59'0 0.0
2014-Apr-22 01:24N 53°32' E 009°59'0 0.0
2014-Apr-22 00:33N 53°32' E 009°59'0 0.0
2014-Apr-21 23:26N 53°32' E 009°59'0 0.0
2014-Apr-21 22:30N 53°32' E 009°59'0 0.0
2014-Apr-21 21:29N 53°32' E 009°59'0 0.0
2014-Apr-21 20:29N 53°32' E 009°59'0 0.0
2014-Apr-21 19:32N 53°32' E 009°59'0 0.0
2014-Apr-21 18:28N 53°32' E 009°59'0 0.0
2014-Apr-21 17:32N 53°32' E 009°59'0 0.0
2014-Apr-21 16:25N 53°32' E 009°59'0 0.0
2014-Apr-21 15:33N 53°32' E 009°59'0 0.0
2014-Apr-21 14:24N 53°32' E 009°59'0 0.0
2014-Apr-21 13:32N 53°32' E 009°59'0 0.0
2014-Apr-21 12:33N 53°32' E 009°59'0 0.0
2014-Apr-21 11:28N 53°32' E 009°59'0 0.0
2014-Apr-21 10:23N 53°32' E 009°59'0 0.0
2014-Apr-21 09:33N 53°32' E 009°59'0 0.0
2014-Apr-21 08:27N 53°32' E 009°59'0 0.0
2014-Apr-21 07:30N 53°32' E 009°59'0 0.0
2014-Apr-21 06:33N 53°32' E 009°59'0 0.0
2014-Apr-21 05:29N 53°32' E 009°59'0 0.0
2014-Apr-21 04:31N 53°32' E 009°59'0 0.0
2014-Apr-21 03:28N 53°32' E 009°59'0 0.0
2014-Apr-21 02:28N 53°32' E 009°59'0 0.0
2014-Apr-21 01:33N 53°32' E 009°59'0 0.0
2014-Apr-21 00:31N 53°32' E 009°59'0 0.0
2014-Apr-20 23:33N 53°32' E 009°59'0 0.0
2014-Apr-20 22:28N 53°32' E 009°59'0 0.0
2014-Apr-20 21:32N 53°32' E 009°59'4 3.8
2014-Apr-20 20:33N 53°33' E 009°53'9 8.7
2014-Apr-20 19:33N 53°34' E 009°39'1110.8
2014-Apr-20 18:33N 53°43' E 009°28'1111.5
2014-Apr-20 17:33N 53°52' E 009°16'1110.8
2014-Apr-20 16:33N 53°51' E 008°58'1110.9
2014-Apr-20 15:33N 53°55' E 008°41'1111.4
2014-Apr-20 14:33N 53°59' E 008°23'1110.9
2014-Apr-20 13:33N 53°59' E 008°04'1211.8
2014-Apr-20 12:33N 53°57' E 007°44'1211.9
2014-Apr-20 11:33N 53°54' E 007°25'1312.1
2014-Apr-20 10:31N 53°51' E 007°04'1511.5
2014-Apr-20 09:14N 53°47' E 006°40'1010.8
2014-Apr-20 08:18N 53°45' E 006°23'1210.2
2014-Apr-20 07:06N 53°41' E 006°03'5 9.8
2014-Apr-20 06:33N 53°40' E 005°55'9 9.5
2014-Apr-20 05:33N 53°37' E 005°39'9 9.3
2014-Apr-20 04:33N 53°34' E 005°25'9 9.0
2014-Apr-20 03:34N 53°31' E 005°10'9 8.8
2014-Apr-20 02:33N 53°28' E 004°56'9 9.0
2014-Apr-20 01:34N 53°24' E 004°42'13 9.4
2014-Apr-20 00:09N 53°12' E 004°34'8 9.7
2014-Apr-19 23:21N 53°06' E 004°27'8 9.8
2014-Apr-19 22:33N 52°59' E 004°20'1010.3
2014-Apr-19 21:33N 52°50' E 004°13'1010.5
2014-Apr-19 20:33N 52°42' E 004°02'1110.6
2014-Apr-19 19:33N 52°34' E 003°49'3411.2
2014-Apr-19 16:32N 52°10' E 003°11'1111.7
2014-Apr-19 15:33N 52°02' E 002°58'2710.9
2014-Apr-19 13:04N 51°41' E 002°29'5 9.8
2014-Apr-19 12:34N 51°37' E 002°24'9 9.2
2014-Apr-19 11:33N 51°30' E 002°14'9 8.6
2014-Apr-19 10:33N 51°22' E 002°10'9 8.9
2014-Apr-19 09:33N 51°14' E 002°05'8 8.3
2014-Apr-19 08:34N 51°09' E 001°53'9 8.2
2014-Apr-19 07:28N 51°04' E 001°42'50 9.9
2014-Apr-19 02:27N 50°28' E 000°48'1011.2
2014-Apr-19 01:34N 50°25' E 000°33'7113.0
2014-Apr-18 20:06N 50°06' W 001°14'19810.7
2014-Apr-18 01:33N 48°36' W 005°45'5510.3
2014-Apr-17 20:15N 47°45' W 005°18'710.2
2014-Apr-17 19:33N 47°38' W 005°15'  
2014-Apr-14 19:32N 43°20' W 003°02'0 0.0
2014-Apr-14 18:34N 43°20' W 003°02'0 0.0
2014-Apr-14 17:32N 43°20' W 003°02'0 0.0
2014-Apr-14 16:31N 43°20' W 003°02'0 0.0
2014-Apr-14 11:32N 43°20' W 003°02'0 0.0
2014-Apr-14 08:33N 43°20' W 003°02'0 0.0
2014-Apr-14 07:30N 43°20' W 003°02'0 0.0
2014-Apr-14 06:33N 43°20' W 003°02'0 0.0
2014-Apr-14 05:33N 43°20' W 003°02'  

Dump ship's entire track history

sailing weather and tide predictions

Bsle Venus — 3FCQ3 — position and weather